sensor_id;sensor_type;location;lat;lon;timestamp;temperature;humidity
66013;DHT22;52783;50.502;8.190;2023-04-01T00:01:19;9.50;99.90
66013;DHT22;52783;50.502;8.190;2023-04-01T00:03:45;9.50;99.90
66013;DHT22;52783;50.502;8.190;2023-04-01T00:06:16;9.60;99.90
66013;DHT22;52783;50.502;8.190;2023-04-01T00:08:42;9.50;99.90
66013;DHT22;52783;50.502;8.190;2023-04-01T00:11:07;9.50;99.90
66013;DHT22;52783;50.502;8.190;2023-04-01T00:13:33;9.50;99.90
66013;DHT22;52783;50.502;8.190;2023-04-01T00:15:59;9.50;99.90
66013;DHT22;52783;50.502;8.190;2023-04-01T00:18:25;9.50;99.90
66013;DHT22;52783;50.502;8.190;2023-04-01T00:20:51;9.50;99.90
66013;DHT22;52783;50.502;8.190;2023-04-01T00:23:18;9.50;99.90
66013;DHT22;52783;50.502;8.190;2023-04-01T00:25:45;9.50;99.90
66013;DHT22;52783;50.502;8.190;2023-04-01T00:28:15;9.50;99.90
66013;DHT22;52783;50.502;8.190;2023-04-01T00:30:41;9.50;99.90
66013;DHT22;52783;50.502;8.190;2023-04-01T00:33:07;9.50;99.90
66013;DHT22;52783;50.502;8.190;2023-04-01T00:35:32;9.50;99.90
66013;DHT22;52783;50.502;8.190;2023-04-01T00:37:58;9.50;99.90
66013;DHT22;52783;50.502;8.190;2023-04-01T00:40:32;9.50;99.90
66013;DHT22;52783;50.502;8.190;2023-04-01T00:42:58;9.50;99.90
66013;DHT22;52783;50.502;8.190;2023-04-01T00:45:39;9.40;99.90
66013;DHT22;52783;50.502;8.190;2023-04-01T00:48:24;9.40;99.90
66013;DHT22;52783;50.502;8.190;2023-04-01T00:51:13;9.40;99.90
66013;DHT22;52783;50.502;8.190;2023-04-01T00:53:43;9.40;99.90
66013;DHT22;52783;50.502;8.190;2023-04-01T00:56:15;9.40;99.90
66013;DHT22;52783;50.502;8.190;2023-04-01T00:58:46;9.40;99.90
66013;DHT22;52783;50.502;8.190;2023-04-01T01:01:13;9.40;99.90
66013;DHT22;52783;50.502;8.190;2023-04-01T01:03:38;9.30;99.90
66013;DHT22;52783;50.502;8.190;2023-04-01T01:14:36;9.30;99.90
66013;DHT22;52783;50.502;8.190;2023-04-01T01:23:29;9.20;99.90
66013;DHT22;52783;50.502;8.190;2023-04-01T01:26:23;9.30;99.90
66013;DHT22;52783;50.502;8.190;2023-04-01T01:34:36;9.20;99.90
66013;DHT22;52783;50.502;8.190;2023-04-01T01:37:12;9.20;99.90
66013;DHT22;52783;50.502;8.190;2023-04-01T01:39:41;9.20;99.90
66013;DHT22;52783;50.502;8.190;2023-04-01T01:42:11;9.20;99.90
66013;DHT22;52783;50.502;8.190;2023-04-01T01:44:39;9.20;99.90
66013;DHT22;52783;50.502;8.190;2023-04-01T01:47:07;9.20;99.90
66013;DHT22;52783;50.502;8.190;2023-04-01T01:49:34;9.20;99.90
66013;DHT22;52783;50.502;8.190;2023-04-01T01:52:00;9.10;99.90
66013;DHT22;52783;50.502;8.190;2023-04-01T01:54:26;9.10;99.90
66013;DHT22;52783;50.502;8.190;2023-04-01T01:57:03;9.10;99.90
66013;DHT22;52783;50.502;8.190;2023-04-01T01:59:30;9.10;99.90
66013;DHT22;52783;50.502;8.190;2023-04-01T02:01:58;9.10;99.90
66013;DHT22;52783;50.502;8.190;2023-04-01T02:04:25;9.20;99.90
66013;DHT22;52783;50.502;8.190;2023-04-01T02:07:02;9.10;99.90
66013;DHT22;52783;50.502;8.190;2023-04-01T02:09:28;9.10;99.90
66013;DHT22;52783;50.502;8.190;2023-04-01T02:12:05;9.10;99.90
66013;DHT22;52783;50.502;8.190;2023-04-01T02:14:39;9.10;99.90
66013;DHT22;52783;50.502;8.190;2023-04-01T02:17:10;9.10;99.90
66013;DHT22;52783;50.502;8.190;2023-04-01T02:20:33;9.10;99.90
66013;DHT22;52783;50.502;8.190;2023-04-01T02:22:56;9.10;99.90
66013;DHT22;52783;50.502;8.190;2023-04-01T02:25:27;9.10;99.90
66013;DHT22;52783;50.502;8.190;2023-04-01T02:27:55;9.10;99.90
66013;DHT22;52783;50.502;8.190;2023-04-01T02:30:22;9.20;99.90
66013;DHT22;52783;50.502;8.190;2023-04-01T02:32:48;9.10;99.90
66013;DHT22;52783;50.502;8.190;2023-04-01T02:35:16;9.20;99.90
66013;DHT22;52783;50.502;8.190;2023-04-01T02:37:43;9.20;99.90
66013;DHT22;52783;50.502;8.190;2023-04-01T02:40:12;9.10;99.90
66013;DHT22;52783;50.502;8.190;2023-04-01T02:42:38;9.20;99.90
66013;DHT22;52783;50.502;8.190;2023-04-01T02:45:05;9.20;99.90
66013;DHT22;52783;50.502;8.190;2023-04-01T02:47:30;9.10;99.90
66013;DHT22;52783;50.502;8.190;2023-04-01T02:49:56;9.10;99.90
66013;DHT22;52783;50.502;8.190;2023-04-01T02:52:30;9.10;99.90
66013;DHT22;52783;50.502;8.190;2023-04-01T02:54:56;9.10;99.90
66013;DHT22;52783;50.502;8.190;2023-04-01T02:57:22;9.10;99.90
66013;DHT22;52783;50.502;8.190;2023-04-01T02:59:48;9.00;99.90
66013;DHT22;52783;50.502;8.190;2023-04-01T03:02:14;9.10;99.90
66013;DHT22;52783;50.502;8.190;2023-04-01T03:04:39;9.00;99.90
66013;DHT22;52783;50.502;8.190;2023-04-01T03:07:05;9.00;99.90
66013;DHT22;52783;50.502;8.190;2023-04-01T03:09:31;9.00;99.90
66013;DHT22;52783;50.502;8.190;2023-04-01T03:11:56;9.00;99.90
66013;DHT22;52783;50.502;8.190;2023-04-01T03:14:22;9.00;99.90
66013;DHT22;52783;50.502;8.190;2023-04-01T03:16:47;9.00;99.90
66013;DHT22;52783;50.502;8.190;2023-04-01T03:19:13;9.00;99.90
66013;DHT22;52783;50.502;8.190;2023-04-01T03:21:38;8.90;99.90
66013;DHT22;52783;50.502;8.190;2023-04-01T03:24:04;9.00;99.90
66013;DHT22;52783;50.502;8.190;2023-04-01T03:26:30;8.90;99.90
66013;DHT22;52783;50.502;8.190;2023-04-01T03:28:56;8.90;99.90
66013;DHT22;52783;50.502;8.190;2023-04-01T03:31:22;8.90;99.90
66013;DHT22;52783;50.502;8.190;2023-04-01T03:33:47;8.90;99.90
66013;DHT22;52783;50.502;8.190;2023-04-01T03:36:13;8.90;99.90
66013;DHT22;52783;50.502;8.190;2023-04-01T03:38:42;8.90;99.90
66013;DHT22;52783;50.502;8.190;2023-04-01T03:41:14;8.90;99.90
66013;DHT22;52783;50.502;8.190;2023-04-01T03:43:40;8.90;99.90
66013;DHT22;52783;50.502;8.190;2023-04-01T03:46:06;8.80;99.90
66013;DHT22;52783;50.502;8.190;2023-04-01T03:48:31;8.80;99.90
66013;DHT22;52783;50.502;8.190;2023-04-01T03:50:57;8.90;99.90
66013;DHT22;52783;50.502;8.190;2023-04-01T03:53:22;8.90;99.90
66013;DHT22;52783;50.502;8.190;2023-04-01T03:55:48;8.90;99.90
66013;DHT22;52783;50.502;8.190;2023-04-01T03:58:13;8.90;99.90
66013;DHT22;52783;50.502;8.190;2023-04-01T04:00:39;8.80;99.90
66013;DHT22;52783;50.502;8.190;2023-04-01T04:03:06;8.90;99.90
66013;DHT22;52783;50.502;8.190;2023-04-01T04:05:32;8.80;99.90
66013;DHT22;52783;50.502;8.190;2023-04-01T04:07:57;8.80;99.90
66013;DHT22;52783;50.502;8.190;2023-04-01T04:10:23;8.80;99.90
66013;DHT22;52783;50.502;8.190;2023-04-01T04:12:50;8.80;99.90
66013;DHT22;52783;50.502;8.190;2023-04-01T04:15:16;8.80;99.90
66013;DHT22;52783;50.502;8.190;2023-04-01T04:17:43;8.80;99.90
66013;DHT22;52783;50.502;8.190;2023-04-01T04:20:09;8.80;99.90
66013;DHT22;52783;50.502;8.190;2023-04-01T04:22:34;8.80;99.90
66013;DHT22;52783;50.502;8.190;2023-04-01T04:25:00;8.70;99.90
66013;DHT22;52783;50.502;8.190;2023-04-01T04:27:25;8.80;99.90
66013;DHT22;52783;50.502;8.190;2023-04-01T04:29:51;8.80;99.90
66013;DHT22;52783;50.502;8.190;2023-04-01T04:32:16;8.80;99.90
66013;DHT22;52783;50.502;8.190;2023-04-01T04:34:42;8.80;99.90
66013;DHT22;52783;50.502;8.190;2023-04-01T04:37:07;8.80;99.90
66013;DHT22;52783;50.502;8.190;2023-04-01T04:39:33;8.80;99.90
66013;DHT22;52783;50.502;8.190;2023-04-01T04:41:58;8.80;99.90
66013;DHT22;52783;50.502;8.190;2023-04-01T04:44:24;8.80;99.90
66013;DHT22;52783;50.502;8.190;2023-04-01T04:46:50;8.70;99.90
66013;DHT22;52783;50.502;8.190;2023-04-01T04:49:16;8.70;99.90
66013;DHT22;52783;50.502;8.190;2023-04-01T04:51:41;8.70;99.90
66013;DHT22;52783;50.502;8.190;2023-04-01T04:54:07;8.70;99.90
66013;DHT22;52783;50.502;8.190;2023-04-01T04:56:33;8.70;99.90
66013;DHT22;52783;50.502;8.190;2023-04-01T04:58:59;8.70;99.90
66013;DHT22;52783;50.502;8.190;2023-04-01T05:01:24;8.80;99.90
66013;DHT22;52783;50.502;8.190;2023-04-01T05:03:50;8.70;99.90
66013;DHT22;52783;50.502;8.190;2023-04-01T05:06:17;8.70;99.90
66013;DHT22;52783;50.502;8.190;2023-04-01T05:08:44;8.70;99.90
66013;DHT22;52783;50.502;8.190;2023-04-01T05:11:14;8.70;99.90
66013;DHT22;52783;50.502;8.190;2023-04-01T05:13:40;8.70;99.90
66013;DHT22;52783;50.502;8.190;2023-04-01T05:16:10;8.70;99.90
66013;DHT22;52783;50.502;8.190;2023-04-01T05:18:36;8.80;99.90
66013;DHT22;52783;50.502;8.190;2023-04-01T05:21:01;8.70;99.90
66013;DHT22;52783;50.502;8.190;2023-04-01T05:23:27;8.70;99.90
66013;DHT22;52783;50.502;8.190;2023-04-01T05:25:52;8.70;99.90
66013;DHT22;52783;50.502;8.190;2023-04-01T05:28:19;8.80;99.90
66013;DHT22;52783;50.502;8.190;2023-04-01T05:30:45;8.80;99.90
66013;DHT22;52783;50.502;8.190;2023-04-01T05:33:12;8.70;99.90
66013;DHT22;52783;50.502;8.190;2023-04-01T05:35:39;8.80;99.90
66013;DHT22;52783;50.502;8.190;2023-04-01T05:38:04;8.80;99.90
66013;DHT22;52783;50.502;8.190;2023-04-01T05:40:31;8.80;99.90
66013;DHT22;52783;50.502;8.190;2023-04-01T05:42:56;8.80;99.90
66013;DHT22;52783;50.502;8.190;2023-04-01T05:45:23;8.80;99.90
66013;DHT22;52783;50.502;8.190;2023-04-01T05:47:48;8.80;99.90
66013;DHT22;52783;50.502;8.190;2023-04-01T05:50:14;8.80;99.90
66013;DHT22;52783;50.502;8.190;2023-04-01T05:52:40;8.80;99.90
66013;DHT22;52783;50.502;8.190;2023-04-01T05:55:06;8.80;99.90
66013;DHT22;52783;50.502;8.190;2023-04-01T05:57:32;8.80;99.90
66013;DHT22;52783;50.502;8.190;2023-04-01T05:59:57;8.90;99.90
66013;DHT22;52783;50.502;8.190;2023-04-01T06:02:23;8.80;99.90
66013;DHT22;52783;50.502;8.190;2023-04-01T06:04:49;8.90;99.90
66013;DHT22;52783;50.502;8.190;2023-04-01T06:07:18;8.90;99.90
66013;DHT22;52783;50.502;8.190;2023-04-01T06:09:44;8.90;99.90
66013;DHT22;52783;50.502;8.190;2023-04-01T06:12:45;9.00;99.90
66013;DHT22;52783;50.502;8.190;2023-04-01T06:18:09;9.00;99.90
66013;DHT22;52783;50.502;8.190;2023-04-01T06:34:58;9.20;99.90
66013;DHT22;52783;50.502;8.190;2023-04-01T06:43:15;9.20;99.90
66013;DHT22;52783;50.502;8.190;2023-04-01T06:46:05;9.20;99.90
66013;DHT22;52783;50.502;8.190;2023-04-01T06:49:02;9.30;99.90
66013;DHT22;52783;50.502;8.190;2023-04-01T06:56:34;9.40;99.90
66013;DHT22;52783;50.502;8.190;2023-04-01T06:59:12;9.40;99.90
66013;DHT22;52783;50.502;8.190;2023-04-01T07:04:31;9.40;99.90
66013;DHT22;52783;50.502;8.190;2023-04-01T07:07:04;9.50;99.90
66013;DHT22;52783;50.502;8.190;2023-04-01T07:09:32;9.50;99.90
66013;DHT22;52783;50.502;8.190;2023-04-01T07:12:02;9.50;99.90
66013;DHT22;52783;50.502;8.190;2023-04-01T07:14:35;9.50;99.90
66013;DHT22;52783;50.502;8.190;2023-04-01T07:17:31;9.60;99.90
66013;DHT22;52783;50.502;8.190;2023-04-01T07:20:10;9.50;99.90
66013;DHT22;52783;50.502;8.190;2023-04-01T07:22:45;9.50;99.90
66013;DHT22;52783;50.502;8.190;2023-04-01T07:25:21;9.50;99.90
66013;DHT22;52783;50.502;8.190;2023-04-01T07:27:52;9.40;99.90
66013;DHT22;52783;50.502;8.190;2023-04-01T07:30:20;9.50;99.90
66013;DHT22;52783;50.502;8.190;2023-04-01T07:33:16;9.50;99.90
66013;DHT22;52783;50.502;8.190;2023-04-01T07:38:42;9.60;99.90
66013;DHT22;52783;50.502;8.190;2023-04-01T07:41:16;9.60;99.90
66013;DHT22;52783;50.502;8.190;2023-04-01T07:49:04;9.80;99.90
66013;DHT22;52783;50.502;8.190;2023-04-01T07:54:43;9.90;99.90
66013;DHT22;52783;50.502;8.190;2023-04-01T08:03:01;9.90;99.90
66013;DHT22;52783;50.502;8.190;2023-04-01T08:06:14;10.00;99.90
66013;DHT22;52783;50.502;8.190;2023-04-01T08:08:36;10.10;99.90
66013;DHT22;52783;50.502;8.190;2023-04-01T08:14:28;10.00;99.90
66013;DHT22;52783;50.502;8.190;2023-04-01T08:17:04;9.90;99.90
66013;DHT22;52783;50.502;8.190;2023-04-01T08:20:28;9.90;99.90
66013;DHT22;52783;50.502;8.190;2023-04-01T08:22:48;10.00;99.90
66013;DHT22;52783;50.502;8.190;2023-04-01T08:25:25;10.00;99.90
66013;DHT22;52783;50.502;8.190;2023-04-01T08:28:00;10.10;99.90
66013;DHT22;52783;50.502;8.190;2023-04-01T08:30:45;10.10;99.90
66013;DHT22;52783;50.502;8.190;2023-04-01T08:33:17;10.30;99.90
66013;DHT22;52783;50.502;8.190;2023-04-01T08:38:24;10.50;99.90
66013;DHT22;52783;50.502;8.190;2023-04-01T08:40:56;10.60;99.90
66013;DHT22;52783;50.502;8.190;2023-04-01T08:46:45;10.60;99.90
66013;DHT22;52783;50.502;8.190;2023-04-01T09:00:49;10.50;99.90
66013;DHT22;52783;50.502;8.190;2023-04-01T09:03:32;10.60;99.90
66013;DHT22;52783;50.502;8.190;2023-04-01T09:12:12;10.90;99.90
66013;DHT22;52783;50.502;8.190;2023-04-01T09:25:38;10.80;99.90
66013;DHT22;52783;50.502;8.190;2023-04-01T09:28:28;10.80;99.90
66013;DHT22;52783;50.502;8.190;2023-04-01T09:31:17;10.70;99.90
66013;DHT22;52783;50.502;8.190;2023-04-01T09:34:06;10.60;99.90
66013;DHT22;52783;50.502;8.190;2023-04-01T09:36:46;10.60;99.90
66013;DHT22;52783;50.502;8.190;2023-04-01T09:42:42;10.50;99.90
66013;DHT22;52783;50.502;8.190;2023-04-01T09:48:35;10.70;99.90
66013;DHT22;52783;50.502;8.190;2023-04-01T09:51:57;10.70;99.90
66013;DHT22;52783;50.502;8.190;2023-04-01T09:54:19;10.80;99.90
66013;DHT22;52783;50.502;8.190;2023-04-01T10:02:47;11.20;99.90
66013;DHT22;52783;50.502;8.190;2023-04-01T10:11:06;11.30;99.90
66013;DHT22;52783;50.502;8.190;2023-04-01T10:13:56;11.40;99.90
66013;DHT22;52783;50.502;8.190;2023-04-01T10:19:55;11.30;99.90
66013;DHT22;52783;50.502;8.190;2023-04-01T10:22:35;11.60;99.90
66013;DHT22;52783;50.502;8.190;2023-04-01T10:25:27;11.70;99.90
66013;DHT22;52783;50.502;8.190;2023-04-01T10:27:58;11.70;99.90
66013;DHT22;52783;50.502;8.190;2023-04-01T10:30:48;11.70;99.90
66013;DHT22;52783;50.502;8.190;2023-04-01T10:33:50;11.90;99.90
66013;DHT22;52783;50.502;8.190;2023-04-01T10:36:48;11.70;99.90
66013;DHT22;52783;50.502;8.190;2023-04-01T10:39:34;11.80;99.90
66013;DHT22;52783;50.502;8.190;2023-04-01T10:42:39;11.90;99.90
66013;DHT22;52783;50.502;8.190;2023-04-01T10:45:29;12.00;99.90
66013;DHT22;52783;50.502;8.190;2023-04-01T11:00:08;12.50;99.90
66013;DHT22;52783;50.502;8.190;2023-04-01T11:03:18;12.40;99.90
66013;DHT22;52783;50.502;8.190;2023-04-01T11:09:03;12.50;99.90
66013;DHT22;52783;50.502;8.190;2023-04-01T11:12:05;12.40;99.90
66013;DHT22;52783;50.502;8.190;2023-04-01T11:25:36;12.00;99.90
66013;DHT22;52783;50.502;8.190;2023-04-01T11:29:06;11.70;99.90
66013;DHT22;52783;50.502;8.190;2023-04-01T11:33:43;11.70;99.90
66013;DHT22;52783;50.502;8.190;2023-04-01T11:39:10;11.90;99.90
66013;DHT22;52783;50.502;8.190;2023-04-01T11:41:56;12.10;99.90
66013;DHT22;52783;50.502;8.190;2023-04-01T11:44:29;12.50;99.90
66013;DHT22;52783;50.502;8.190;2023-04-01T11:47:18;12.70;99.90
66013;DHT22;52783;50.502;8.190;2023-04-01T11:50:08;12.70;99.90
66013;DHT22;52783;50.502;8.190;2023-04-01T11:55:59;12.60;99.90
66013;DHT22;52783;50.502;8.190;2023-04-01T11:59:02;12.70;99.90
66013;DHT22;52783;50.502;8.190;2023-04-01T12:09:36;12.80;99.90
66013;DHT22;52783;50.502;8.190;2023-04-01T12:12:10;13.00;99.90
66013;DHT22;52783;50.502;8.190;2023-04-01T12:22:53;12.60;99.90
66013;DHT22;52783;50.502;8.190;2023-04-01T12:25:38;12.50;99.90
66013;DHT22;52783;50.502;8.190;2023-04-01T12:28:41;12.40;99.90
66013;DHT22;52783;50.502;8.190;2023-04-01T12:31:42;12.40;99.90
66013;DHT22;52783;50.502;8.190;2023-04-01T12:45:30;12.60;99.90
66013;DHT22;52783;50.502;8.190;2023-04-01T12:48:21;12.80;99.90
66013;DHT22;52783;50.502;8.190;2023-04-01T12:59:50;12.80;99.90
66013;DHT22;52783;50.502;8.190;2023-04-01T13:05:21;12.90;99.90
66013;DHT22;52783;50.502;8.190;2023-04-01T13:08:00;13.00;99.90
66013;DHT22;52783;50.502;8.190;2023-04-01T13:10:51;12.70;99.90
66013;DHT22;52783;50.502;8.190;2023-04-01T13:13:47;12.70;99.90
66013;DHT22;52783;50.502;8.190;2023-04-01T13:25:09;12.60;99.90
66013;DHT22;52783;50.502;8.190;2023-04-01T13:27:58;12.50;99.90
66013;DHT22;52783;50.502;8.190;2023-04-01T13:30:42;12.50;99.90
66013;DHT22;52783;50.502;8.190;2023-04-01T13:36:19;12.40;99.90
66013;DHT22;52783;50.502;8.190;2023-04-01T13:38:59;12.50;99.90
66013;DHT22;52783;50.502;8.190;2023-04-01T13:41:47;12.50;99.90
66013;DHT22;52783;50.502;8.190;2023-04-01T13:44:39;12.70;99.90
66013;DHT22;52783;50.502;8.190;2023-04-01T13:53:04;12.80;99.90
66013;DHT22;52783;50.502;8.190;2023-04-01T13:59:06;12.80;99.90
66013;DHT22;52783;50.502;8.190;2023-04-01T14:01:43;12.70;99.90
66013;DHT22;52783;50.502;8.190;2023-04-01T14:26:50;11.80;99.90
66013;DHT22;52783;50.502;8.190;2023-04-01T14:29:59;11.80;99.90
66013;DHT22;52783;50.502;8.190;2023-04-01T14:32:33;11.90;99.90
66013;DHT22;52783;50.502;8.190;2023-04-01T14:38:32;12.00;99.90
66013;DHT22;52783;50.502;8.190;2023-04-01T14:41:11;12.10;99.90
66013;DHT22;52783;50.502;8.190;2023-04-01T14:43:48;12.20;99.90
66013;DHT22;52783;50.502;8.190;2023-04-01T14:46:45;12.40;99.90
66013;DHT22;52783;50.502;8.190;2023-04-01T14:49:35;12.40;99.90
66013;DHT22;52783;50.502;8.190;2023-04-01T14:54:48;12.10;99.90
66013;DHT22;52783;50.502;8.190;2023-04-01T14:57:24;12.20;99.90
66013;DHT22;52783;50.502;8.190;2023-04-01T15:00:00;11.90;99.90
66013;DHT22;52783;50.502;8.190;2023-04-01T15:08:16;11.50;99.90
66013;DHT22;52783;50.502;8.190;2023-04-01T15:19:14;11.30;99.90
66013;DHT22;52783;50.502;8.190;2023-04-01T15:24:21;11.30;99.90
66013;DHT22;52783;50.502;8.190;2023-04-01T15:27:00;11.20;99.90
66013;DHT22;52783;50.502;8.190;2023-04-01T15:38:06;11.30;99.90
66013;DHT22;52783;50.502;8.190;2023-04-01T15:40:53;11.30;99.90
66013;DHT22;52783;50.502;8.190;2023-04-01T15:46:36;11.40;99.90
66013;DHT22;52783;50.502;8.190;2023-04-01T15:52:14;11.40;99.90
66013;DHT22;52783;50.502;8.190;2023-04-01T16:00:27;12.00;99.90
66013;DHT22;52783;50.502;8.190;2023-04-01T16:06:08;12.30;99.90
66013;DHT22;52783;50.502;8.190;2023-04-01T16:11:28;12.40;99.90
66013;DHT22;52783;50.502;8.190;2023-04-01T16:14:33;12.30;99.90
66013;DHT22;52783;50.502;8.190;2023-04-01T16:22:37;12.30;99.90
66013;DHT22;52783;50.502;8.190;2023-04-01T16:25:31;12.20;99.90
66013;DHT22;52783;50.502;8.190;2023-04-01T16:31:07;12.10;99.90
66013;DHT22;52783;50.502;8.190;2023-04-01T16:34:10;12.00;99.90
66013;DHT22;52783;50.502;8.190;2023-04-01T16:36:49;12.00;99.90
66013;DHT22;52783;50.502;8.190;2023-04-01T16:39:37;11.80;99.90
66013;DHT22;52783;50.502;8.190;2023-04-01T16:42:19;11.70;99.90
66013;DHT22;52783;50.502;8.190;2023-04-01T16:44:52;11.60;99.90
66013;DHT22;52783;50.502;8.190;2023-04-01T16:47:22;11.70;99.90
66013;DHT22;52783;50.502;8.190;2023-04-01T16:52:48;11.80;99.90
66013;DHT22;52783;50.502;8.190;2023-04-01T16:55:20;11.90;99.90
66013;DHT22;52783;50.502;8.190;2023-04-01T16:57:52;11.80;99.90
66013;DHT22;52783;50.502;8.190;2023-04-01T17:00:30;11.70;99.90
66013;DHT22;52783;50.502;8.190;2023-04-01T17:12:13;11.40;99.90
66013;DHT22;52783;50.502;8.190;2023-04-01T17:14:37;11.40;99.90
66013;DHT22;52783;50.502;8.190;2023-04-01T17:20:14;11.20;99.90
66013;DHT22;52783;50.502;8.190;2023-04-01T17:23:22;11.10;99.90
66013;DHT22;52783;50.502;8.190;2023-04-01T17:26:05;11.10;99.90
66013;DHT22;52783;50.502;8.190;2023-04-01T17:29:02;11.00;99.90
66013;DHT22;52783;50.502;8.190;2023-04-01T17:36:57;10.90;99.90
66013;DHT22;52783;50.502;8.190;2023-04-01T17:39:34;10.90;99.90
66013;DHT22;52783;50.502;8.190;2023-04-01T17:42:07;10.80;99.90
66013;DHT22;52783;50.502;8.190;2023-04-01T17:44:44;10.90;99.90
66013;DHT22;52783;50.502;8.190;2023-04-01T18:04:11;10.50;99.90
66013;DHT22;52783;50.502;8.190;2023-04-01T18:18:37;10.30;99.90
66013;DHT22;52783;50.502;8.190;2023-04-01T18:21:42;10.30;99.90
66013;DHT22;52783;50.502;8.190;2023-04-01T18:24:18;10.30;99.90
66013;DHT22;52783;50.502;8.190;2023-04-01T18:38:37;9.90;99.90
66013;DHT22;52783;50.502;8.190;2023-04-01T18:41:14;9.90;99.90
66013;DHT22;52783;50.502;8.190;2023-04-01T18:46:48;9.70;99.90
66013;DHT22;52783;50.502;8.190;2023-04-01T18:52:07;9.60;99.90
66013;DHT22;52783;50.502;8.190;2023-04-01T18:54:47;9.60;99.90
66013;DHT22;52783;50.502;8.190;2023-04-01T18:57:16;9.70;99.90
66013;DHT22;52783;50.502;8.190;2023-04-01T19:00:04;9.60;99.90
66013;DHT22;52783;50.502;8.190;2023-04-01T19:02:41;9.60;99.90
66013;DHT22;52783;50.502;8.190;2023-04-01T19:05:16;9.60;99.90
66013;DHT22;52783;50.502;8.190;2023-04-01T19:10:20;9.60;99.90
66013;DHT22;52783;50.502;8.190;2023-04-01T19:15:42;9.60;99.90
66013;DHT22;52783;50.502;8.190;2023-04-01T19:20:54;9.50;99.90
66013;DHT22;52783;50.502;8.190;2023-04-01T19:26:39;9.40;99.90
66013;DHT22;52783;50.502;8.190;2023-04-01T19:38:30;9.50;99.90
66013;DHT22;52783;50.502;8.190;2023-04-01T19:44:02;9.50;99.90
66013;DHT22;52783;50.502;8.190;2023-04-01T19:52:22;9.30;99.90
66013;DHT22;52783;50.502;8.190;2023-04-01T19:58:00;9.30;99.90
66013;DHT22;52783;50.502;8.190;2023-04-01T20:00:36;9.40;99.90
66013;DHT22;52783;50.502;8.190;2023-04-01T20:16:18;9.40;99.90
66013;DHT22;52783;50.502;8.190;2023-04-01T20:18:57;9.40;99.90
66013;DHT22;52783;50.502;8.190;2023-04-01T20:26:41;9.30;99.90
66013;DHT22;52783;50.502;8.190;2023-04-01T20:31:43;9.30;99.90
66013;DHT22;52783;50.502;8.190;2023-04-01T20:34:22;9.30;99.90
66013;DHT22;52783;50.502;8.190;2023-04-01T20:37:38;9.30;99.90
66013;DHT22;52783;50.502;8.190;2023-04-01T20:40:23;9.30;99.90
66013;DHT22;52783;50.502;8.190;2023-04-01T20:46:20;9.20;99.90
66013;DHT22;52783;50.502;8.190;2023-04-01T20:52:01;9.40;99.90
66013;DHT22;52783;50.502;8.190;2023-04-01T20:54:42;9.40;99.90
66013;DHT22;52783;50.502;8.190;2023-04-01T20:57:31;9.40;99.90
66013;DHT22;52783;50.502;8.190;2023-04-01T21:00:23;9.40;99.90
66013;DHT22;52783;50.502;8.190;2023-04-01T21:06:14;9.40;99.90
66013;DHT22;52783;50.502;8.190;2023-04-01T21:23:47;9.50;99.90
66013;DHT22;52783;50.502;8.190;2023-04-01T21:26:32;9.50;99.90
66013;DHT22;52783;50.502;8.190;2023-04-01T21:32:43;9.40;99.90
66013;DHT22;52783;50.502;8.190;2023-04-01T21:43:34;9.50;99.90
66013;DHT22;52783;50.502;8.190;2023-04-01T21:52:10;9.50;99.90
66013;DHT22;52783;50.502;8.190;2023-04-01T21:55:43;9.60;99.90
66013;DHT22;52783;50.502;8.190;2023-04-01T22:04:17;9.40;99.90
66013;DHT22;52783;50.502;8.190;2023-04-01T22:06:54;9.40;99.90
66013;DHT22;52783;50.502;8.190;2023-04-01T22:09:27;9.50;99.90
66013;DHT22;52783;50.502;8.190;2023-04-01T22:12:15;9.50;99.90
66013;DHT22;52783;50.502;8.190;2023-04-01T22:14:55;9.40;99.90
66013;DHT22;52783;50.502;8.190;2023-04-01T22:17:56;9.40;99.90
66013;DHT22;52783;50.502;8.190;2023-04-01T22:23:26;9.40;99.90
66013;DHT22;52783;50.502;8.190;2023-04-01T22:26:14;9.30;99.90
66013;DHT22;52783;50.502;8.190;2023-04-01T22:31:47;9.40;99.90
66013;DHT22;52783;50.502;8.190;2023-04-01T22:34:29;9.30;99.90
66013;DHT22;52783;50.502;8.190;2023-04-01T22:37:24;9.40;99.90
66013;DHT22;52783;50.502;8.190;2023-04-01T22:40:05;9.30;99.90
66013;DHT22;52783;50.502;8.190;2023-04-01T22:48:13;9.40;99.90
66013;DHT22;52783;50.502;8.190;2023-04-01T22:50:57;9.30;99.90
66013;DHT22;52783;50.502;8.190;2023-04-01T22:56:35;9.40;99.90
66013;DHT22;52783;50.502;8.190;2023-04-01T22:59:24;9.30;99.90
66013;DHT22;52783;50.502;8.190;2023-04-01T23:01:59;9.30;99.90
66013;DHT22;52783;50.502;8.190;2023-04-01T23:04:32;9.30;99.90
66013;DHT22;52783;50.502;8.190;2023-04-01T23:07:02;9.30;99.90
66013;DHT22;52783;50.502;8.190;2023-04-01T23:09:31;9.30;99.90
66013;DHT22;52783;50.502;8.190;2023-04-01T23:17:28;9.30;99.90
66013;DHT22;52783;50.502;8.190;2023-04-01T23:22:29;9.40;99.90
66013;DHT22;52783;50.502;8.190;2023-04-01T23:25:15;9.30;99.90
66013;DHT22;52783;50.502;8.190;2023-04-01T23:33:22;9.40;99.90
66013;DHT22;52783;50.502;8.190;2023-04-01T23:36:10;9.40;99.90
66013;DHT22;52783;50.502;8.190;2023-04-01T23:41:06;9.40;99.90
66013;DHT22;52783;50.502;8.190;2023-04-01T23:43:34;9.40;99.90
66013;DHT22;52783;50.502;8.190;2023-04-01T23:46:03;9.40;99.90
66013;DHT22;52783;50.502;8.190;2023-04-01T23:48:33;9.30;99.90
66013;DHT22;52783;50.502;8.190;2023-04-01T23:51:01;9.30;99.90
66013;DHT22;52783;50.502;8.190;2023-04-01T23:53:33;9.30;99.90
66013;DHT22;52783;50.502;8.190;2023-04-01T23:56:00;9.30;99.90
66013;DHT22;52783;50.502;8.190;2023-04-01T23:58:44;9.30;99.90
